ARG1975 SABE-SACO
Flight info
| Callsign | ARG1975 |
|---|---|
| Flight time | 1h 8m |
| Altitude | 36000 |
| Route | ATOVO UW5 ASISA |
| Aircraft | B738/M-SDE2E3FGHIRWXY/LB1 |
Departure
| Time | 2026-05-03 20:56 |
|---|---|
| Airport | Aeroparque Jorge Newbery (SABE) |
Arrival
| Time | 2026-05-03 22:05 |
|---|---|
| Airport | Ingeniero Aeronáutico Ambrosio L.V. Taravella International Airport (SACO) |
| Time | Latitude | Longitude | Altitude | Speed | Heading |
|---|---|---|---|---|---|
| 2026-05-03 20:15 | -34.55938 | -58.41047 | 24 ft | 0 kts | 40° |
| 2026-05-03 20:39 | -34.55939 | -58.41048 | 24 ft | 2 kts | 40° |
| 2026-05-03 20:40 | -34.55960 | -58.41064 | 24 ft | 4 kts | 14° |
| 2026-05-03 20:40 | -34.55985 | -58.41066 | 27 ft | 4 kts | 340° |
| 2026-05-03 20:40 | -34.55998 | -58.41059 | 24 ft | 0 kts | 326° |
| 2026-05-03 20:43 | -34.55985 | -58.41070 | 26 ft | 5 kts | 326° |
| 2026-05-03 20:43 | -34.55957 | -58.41098 | 27 ft | 5 kts | 315° |
| 2026-05-03 20:44 | -34.55935 | -58.41128 | 27 ft | 4 kts | 312° |
| 2026-05-03 20:44 | -34.55917 | -58.41153 | 24 ft | 4 kts | 310° |
| 2026-05-03 20:44 | -34.55911 | -58.41161 | 26 ft | 0 kts | 311° |
| 2026-05-03 20:45 | -34.55906 | -58.41167 | 27 ft | 3 kts | 311° |
| 2026-05-03 20:45 | -34.55890 | -58.41189 | 27 ft | 4 kts | 311° |
| 2026-05-03 20:46 | -34.55874 | -58.41213 | 24 ft | 3 kts | 309° |
| 2026-05-03 20:46 | -34.55867 | -58.41223 | 24 ft | 1 kts | 308° |
| 2026-05-03 20:46 | -34.55864 | -58.41230 | 24 ft | 0 kts | 305° |
| 2026-05-03 20:47 | -34.55859 | -58.41266 | 24 ft | 9 kts | 253° |
| 2026-05-03 20:48 | -34.55912 | -58.41304 | 24 ft | 9 kts | 173° |
| 2026-05-03 20:48 | -34.55959 | -58.41247 | 26 ft | 11 kts | 126° |
| 2026-05-03 20:48 | -34.56003 | -58.41174 | 24 ft | 11 kts | 126° |
| 2026-05-03 20:48 | -34.56049 | -58.41101 | 26 ft | 11 kts | 128° |
| 2026-05-03 20:49 | -34.56093 | -58.41032 | 25 ft | 10 kts | 127° |
| 2026-05-03 20:49 | -34.56134 | -58.40963 | 28 ft | 10 kts | 124° |
| 2026-05-03 20:49 | -34.56168 | -58.40893 | 28 ft | 10 kts | 116° |
| 2026-05-03 20:49 | -34.56180 | -58.40815 | 28 ft | 9 kts | 118° |
| 2026-05-03 20:50 | -34.56216 | -58.40750 | 25 ft | 9 kts | 124° |
| 2026-05-03 20:50 | -34.56249 | -58.40691 | 29 ft | 8 kts | 124° |
| 2026-05-03 20:50 | -34.56280 | -58.40635 | 25 ft | 8 kts | 125° |
| 2026-05-03 20:50 | -34.56312 | -58.40585 | 24 ft | 7 kts | 131° |
| 2026-05-03 20:51 | -34.56339 | -58.40552 | 28 ft | 4 kts | 136° |
| 2026-05-03 20:51 | -34.56357 | -58.40531 | 24 ft | 4 kts | 137° |
| 2026-05-03 20:51 | -34.56379 | -58.40508 | 28 ft | 5 kts | 139° |
| 2026-05-03 20:51 | -34.56404 | -58.40481 | 27 ft | 5 kts | 139° |
| 2026-05-03 20:52 | -34.56414 | -58.40470 | 24 ft | 0 kts | 139° |
| 2026-05-03 20:53 | -34.56425 | -58.40459 | 27 ft | 7 kts | 139° |
| 2026-05-03 20:54 | -34.56469 | -58.40411 | 27 ft | 9 kts | 138° |
| 2026-05-03 20:54 | -34.56533 | -58.40490 | 24 ft | 8 kts | 304° |
| 2026-05-03 20:54 | -34.56530 | -58.40494 | 25 ft | 0 kts | 305° |
| 2026-05-03 20:55 | -34.56423 | -58.40682 | 27 ft | 65 kts | 304° |
| 2026-05-03 20:55 | -34.56027 | -58.41393 | 27 ft | 135 kts | 304° |
| 2026-05-03 20:56 | -34.55450 | -58.42465 | 457 ft | 153 kts | 301° |
| 2026-05-03 20:56 | -34.54856 | -58.43438 | 1449 ft | 136 kts | 321° |
| 2026-05-03 20:56 | -34.54007 | -58.43989 | 2027 ft | 149 kts | 342° |
| 2026-05-03 20:56 | -34.52888 | -58.44221 | 2347 ft | 179 kts | 359° |
| 2026-05-03 20:57 | -34.51571 | -58.43908 | 2618 ft | 208 kts | 25° |
| 2026-05-03 20:57 | -34.50268 | -58.42950 | 2935 ft | 228 kts | 30° |
| 2026-05-03 20:57 | -34.48846 | -58.41888 | 3252 ft | 248 kts | 30° |
| 2026-05-03 20:57 | -34.47352 | -58.40767 | 3956 ft | 256 kts | 30° |
| 2026-05-03 20:58 | -34.45824 | -58.39619 | 4821 ft | 260 kts | 29° |
| 2026-05-03 20:58 | -34.44296 | -58.38470 | 5606 ft | 265 kts | 29° |
| 2026-05-03 20:58 | -34.42704 | -58.37274 | 6355 ft | 272 kts | 29° |
| 2026-05-03 20:58 | -34.41077 | -58.36064 | 7155 ft | 276 kts | 26° |
| 2026-05-03 20:59 | -34.39261 | -58.35421 | 7932 ft | 275 kts | 358° |
| 2026-05-03 20:59 | -34.37396 | -58.35836 | 8747 ft | 273 kts | 335° |
| 2026-05-03 20:59 | -34.35744 | -58.36987 | 9511 ft | 276 kts | 325° |
| 2026-05-03 20:59 | -34.34147 | -58.38311 | 10277 ft | 280 kts | 322° |
| 2026-05-03 21:00 | -34.32502 | -58.39707 | 10652 ft | 300 kts | 322° |
| 2026-05-03 21:00 | -34.31943 | -58.40184 | 10708 ft | 308 kts | 322° |
| 2026-05-03 21:00 | -34.28856 | -58.42792 | 11394 ft | 333 kts | 322° |
| 2026-05-03 21:00 | -34.26939 | -58.44393 | 12124 ft | 336 kts | 322° |
| 2026-05-03 21:01 | -34.25009 | -58.45996 | 12892 ft | 338 kts | 321° |
| 2026-05-03 21:01 | -34.23056 | -58.47614 | 13617 ft | 342 kts | 321° |
| 2026-05-03 21:01 | -34.21072 | -58.49257 | 14312 ft | 347 kts | 321° |
| 2026-05-03 21:01 | -34.19093 | -58.50892 | 15021 ft | 351 kts | 321° |
| 2026-05-03 21:02 | -34.17036 | -58.52592 | 15762 ft | 356 kts | 321° |
| 2026-05-03 21:02 | -34.15009 | -58.54270 | 16463 ft | 359 kts | 320° |
| 2026-05-03 21:02 | -34.13221 | -58.56389 | 17122 ft | 355 kts | 299° |
| 2026-05-03 21:02 | -34.12138 | -58.59039 | 17826 ft | 352 kts | 285° |
| 2026-05-03 21:03 | -34.11652 | -58.61880 | 18527 ft | 351 kts | 275° |
| 2026-05-03 21:03 | -34.11444 | -58.63860 | 18960 ft | 353 kts | 274° |
| 2026-05-03 21:03 | -34.11162 | -58.66819 | 19579 ft | 357 kts | 274° |
| 2026-05-03 21:03 | -34.10789 | -58.70789 | 20442 ft | 361 kts | 274° |
| 2026-05-03 21:04 | -34.10591 | -58.72827 | 20863 ft | 363 kts | 274° |
| 2026-05-03 21:04 | -34.10288 | -58.75856 | 21467 ft | 366 kts | 274° |
| 2026-05-03 21:04 | -34.09972 | -58.78918 | 22039 ft | 369 kts | 274° |
| 2026-05-03 21:04 | -34.09650 | -58.82009 | 22599 ft | 372 kts | 274° |
| 2026-05-03 21:05 | -34.09327 | -58.85072 | 23145 ft | 375 kts | 275° |
| 2026-05-03 21:05 | -34.08994 | -58.88203 | 23673 ft | 378 kts | 274° |
| 2026-05-03 21:05 | -34.08544 | -58.92421 | 24101 ft | 381 kts | 274° |
| 2026-05-03 21:05 | -34.08319 | -58.94526 | 24108 ft | 384 kts | 274° |
| 2026-05-03 21:06 | -34.07978 | -58.97711 | 24121 ft | 381 kts | 274° |
| 2026-05-03 21:06 | -34.07637 | -59.00872 | 24140 ft | 380 kts | 274° |
| 2026-05-03 21:06 | -34.07297 | -59.04041 | 24150 ft | 381 kts | 274° |
| 2026-05-03 21:06 | -34.06955 | -59.07213 | 24149 ft | 381 kts | 274° |
| 2026-05-03 21:07 | -34.06606 | -59.10386 | 24152 ft | 382 kts | 276° |
| 2026-05-03 21:07 | -34.05926 | -59.13502 | 24146 ft | 387 kts | 287° |
| 2026-05-03 21:07 | -34.04812 | -59.16472 | 24151 ft | 391 kts | 294° |
| 2026-05-03 21:07 | -34.03324 | -59.19241 | 24141 ft | 397 kts | 303° |
| 2026-05-03 21:08 | -34.01567 | -59.21814 | 24151 ft | 398 kts | 305° |
| 2026-05-03 21:08 | -33.99761 | -59.24376 | 24271 ft | 405 kts | 305° |
| 2026-05-03 21:08 | -33.97925 | -59.26964 | 24798 ft | 406 kts | 306° |
| 2026-05-03 21:08 | -33.96098 | -59.29545 | 25436 ft | 404 kts | 305° |
| 2026-05-03 21:09 | -33.94277 | -59.32134 | 25894 ft | 407 kts | 305° |
| 2026-05-03 21:09 | -33.92446 | -59.34751 | 26300 ft | 411 kts | 304° |
| 2026-05-03 21:09 | -33.90599 | -59.37399 | 26704 ft | 414 kts | 304° |
| 2026-05-03 21:09 | -33.88739 | -59.40066 | 27116 ft | 417 kts | 304° |
| 2026-05-03 21:10 | -33.86871 | -59.42748 | 27514 ft | 420 kts | 304° |
| 2026-05-03 21:10 | -33.84989 | -59.45443 | 27898 ft | 423 kts | 304° |
| 2026-05-03 21:10 | -33.83115 | -59.48126 | 28265 ft | 425 kts | 304° |
| 2026-05-03 21:10 | -33.81202 | -59.50861 | 28615 ft | 429 kts | 304° |
| 2026-05-03 21:11 | -33.79278 | -59.53611 | 28976 ft | 431 kts | 304° |
| 2026-05-03 21:11 | -33.77339 | -59.56379 | 29336 ft | 434 kts | 304° |
| 2026-05-03 21:11 | -33.75389 | -59.59162 | 29678 ft | 436 kts | 304° |
| 2026-05-03 21:11 | -33.73439 | -59.61941 | 30123 ft | 435 kts | 304° |
| 2026-05-03 21:12 | -33.71494 | -59.64711 | 30614 ft | 433 kts | 304° |
| 2026-05-03 21:12 | -33.69549 | -59.67479 | 31037 ft | 433 kts | 304° |
| 2026-05-03 21:12 | -33.67603 | -59.70244 | 31374 ft | 434 kts | 304° |
| 2026-05-03 21:12 | -33.65648 | -59.73018 | 31743 ft | 435 kts | 304° |
| 2026-05-03 21:13 | -33.63695 | -59.75786 | 32167 ft | 434 kts | 304° |
| 2026-05-03 21:13 | -33.61745 | -59.78545 | 32562 ft | 433 kts | 304° |
| 2026-05-03 21:13 | -33.59812 | -59.81276 | 33207 ft | 425 kts | 303° |
| 2026-05-03 21:13 | -33.57914 | -59.83953 | 33823 ft | 418 kts | 302° |
| 2026-05-03 21:14 | -33.56034 | -59.86609 | 34147 ft | 419 kts | 302° |
| 2026-05-03 21:14 | -33.54144 | -59.89284 | 34396 ft | 421 kts | 302° |
| 2026-05-03 21:14 | -33.52252 | -59.91962 | 34716 ft | 421 kts | 302° |
| 2026-05-03 21:14 | -33.50361 | -59.94630 | 35109 ft | 418 kts | 302° |
| 2026-05-03 21:15 | -33.48483 | -59.97278 | 35474 ft | 417 kts | 302° |
| 2026-05-03 21:15 | -33.46630 | -59.99889 | 35778 ft | 416 kts | 302° |
| 2026-05-03 21:15 | -33.44731 | -60.02564 | 36061 ft | 417 kts | 302° |
| 2026-05-03 21:15 | -33.42866 | -60.05192 | 36051 ft | 422 kts | 302° |
| 2026-05-03 21:16 | -33.39068 | -60.10532 | 36059 ft | 419 kts | 302° |
| 2026-05-03 21:16 | -33.35317 | -60.15785 | 36063 ft | 413 kts | 302° |
| 2026-05-03 21:17 | -33.32209 | -60.20140 | 36062 ft | 414 kts | 302° |
| 2026-05-03 21:17 | -33.27832 | -60.26271 | 36061 ft | 415 kts | 302° |
| 2026-05-03 21:18 | -33.24073 | -60.31524 | 36054 ft | 416 kts | 302° |
| 2026-05-03 21:18 | -33.20300 | -60.36782 | 36060 ft | 417 kts | 302° |
| 2026-05-03 21:19 | -33.16530 | -60.42036 | 36056 ft | 417 kts | 302° |
| 2026-05-03 21:19 | -33.12753 | -60.47292 | 36055 ft | 417 kts | 302° |
| 2026-05-03 21:20 | -33.08999 | -60.52506 | 36046 ft | 417 kts | 302° |
| 2026-05-03 21:20 | -33.05233 | -60.57729 | 36043 ft | 416 kts | 302° |
| 2026-05-03 21:21 | -33.01460 | -60.62956 | 36047 ft | 416 kts | 302° |
| 2026-05-03 21:21 | -32.97684 | -60.68179 | 36040 ft | 416 kts | 302° |
| 2026-05-03 21:22 | -32.93913 | -60.73388 | 36048 ft | 415 kts | 302° |
| 2026-05-03 21:22 | -32.90211 | -60.78636 | 36033 ft | 409 kts | 296° |
| 2026-05-03 21:23 | -32.87333 | -60.84375 | 36045 ft | 403 kts | 292° |
| 2026-05-03 21:23 | -32.84527 | -60.90153 | 36053 ft | 403 kts | 292° |
| 2026-05-03 21:24 | -32.81721 | -60.95876 | 36038 ft | 404 kts | 292° |
| 2026-05-03 21:24 | -32.78876 | -61.01637 | 36045 ft | 404 kts | 292° |
| 2026-05-03 21:25 | -32.76025 | -61.07393 | 36045 ft | 405 kts | 292° |
| 2026-05-03 21:25 | -32.73165 | -61.13158 | 36047 ft | 405 kts | 292° |
| 2026-05-03 21:26 | -32.70301 | -61.18919 | 36044 ft | 405 kts | 292° |
| 2026-05-03 21:26 | -32.67433 | -61.24679 | 36045 ft | 405 kts | 292° |
| 2026-05-03 21:27 | -32.64561 | -61.30439 | 36040 ft | 406 kts | 292° |
| 2026-05-03 21:27 | -32.61684 | -61.36200 | 36036 ft | 406 kts | 292° |
| 2026-05-03 21:28 | -32.58807 | -61.41953 | 36048 ft | 405 kts | 292° |
| 2026-05-03 21:28 | -32.55933 | -61.47690 | 36036 ft | 406 kts | 292° |
| 2026-05-03 21:29 | -32.53045 | -61.53446 | 36034 ft | 406 kts | 292° |
| 2026-05-03 21:29 | -32.50170 | -61.59169 | 36047 ft | 405 kts | 293° |
| 2026-05-03 21:30 | -32.47301 | -61.64870 | 36032 ft | 405 kts | 292° |
| 2026-05-03 21:30 | -32.44415 | -61.70595 | 36036 ft | 405 kts | 292° |
| 2026-05-03 21:31 | -32.41529 | -61.76316 | 36046 ft | 405 kts | 293° |
| 2026-05-03 21:31 | -32.38638 | -61.82036 | 36035 ft | 405 kts | 293° |
| 2026-05-03 21:32 | -32.35747 | -61.87743 | 36033 ft | 404 kts | 293° |
| 2026-05-03 21:32 | -32.32852 | -61.93452 | 36024 ft | 404 kts | 293° |
| 2026-05-03 21:33 | -32.29980 | -61.99083 | 35534 ft | 396 kts | 293° |
| 2026-05-03 21:33 | -32.28550 | -62.01891 | 34835 ft | 401 kts | 293° |
| 2026-05-03 21:33 | -32.27106 | -62.04733 | 34053 ft | 407 kts | 293° |
| 2026-05-03 21:34 | -32.25638 | -62.07622 | 33241 ft | 413 kts | 293° |
| 2026-05-03 21:34 | -32.24151 | -62.10543 | 32648 ft | 414 kts | 294° |
| 2026-05-03 21:34 | -32.22671 | -62.13432 | 32184 ft | 409 kts | 294° |
| 2026-05-03 21:34 | -32.21201 | -62.16296 | 31799 ft | 408 kts | 294° |
| 2026-05-03 21:35 | -32.19721 | -62.19193 | 31401 ft | 416 kts | 294° |
| 2026-05-03 21:35 | -32.18215 | -62.22142 | 30990 ft | 423 kts | 294° |
| 2026-05-03 21:35 | -32.16692 | -62.25117 | 30562 ft | 423 kts | 295° |
| 2026-05-03 21:35 | -32.15167 | -62.28086 | 30135 ft | 422 kts | 295° |
| 2026-05-03 21:36 | -32.13643 | -62.31050 | 29714 ft | 423 kts | 295° |
| 2026-05-03 21:36 | -32.12134 | -62.33986 | 29287 ft | 426 kts | 295° |
| 2026-05-03 21:36 | -32.10576 | -62.37019 | 28831 ft | 428 kts | 295° |
| 2026-05-03 21:36 | -32.09047 | -62.39991 | 28389 ft | 430 kts | 295° |
| 2026-05-03 21:37 | -32.07471 | -62.43052 | 27934 ft | 431 kts | 295° |
| 2026-05-03 21:37 | -32.05914 | -62.46073 | 27464 ft | 432 kts | 296° |
| 2026-05-03 21:37 | -32.04370 | -62.49066 | 27023 ft | 433 kts | 296° |
| 2026-05-03 21:37 | -32.02806 | -62.52097 | 26562 ft | 433 kts | 296° |
| 2026-05-03 21:38 | -32.01238 | -62.55131 | 26103 ft | 432 kts | 296° |
| 2026-05-03 21:38 | -31.99703 | -62.58090 | 25625 ft | 414 kts | 296° |
| 2026-05-03 21:38 | -31.98222 | -62.60943 | 25211 ft | 408 kts | 296° |
| 2026-05-03 21:38 | -31.96746 | -62.63794 | 24783 ft | 406 kts | 296° |
| 2026-05-03 21:39 | -31.95284 | -62.66617 | 24352 ft | 401 kts | 296° |
| 2026-05-03 21:39 | -31.93840 | -62.69404 | 23924 ft | 396 kts | 296° |
| 2026-05-03 21:39 | -31.92415 | -62.72153 | 23507 ft | 391 kts | 296° |
| 2026-05-03 21:39 | -31.91005 | -62.74868 | 23092 ft | 385 kts | 296° |
| 2026-05-03 21:40 | -31.89615 | -62.77544 | 22685 ft | 381 kts | 296° |
| 2026-05-03 21:40 | -31.88237 | -62.80194 | 22281 ft | 377 kts | 297° |
| 2026-05-03 21:40 | -31.86885 | -62.82797 | 21888 ft | 379 kts | 297° |
| 2026-05-03 21:40 | -31.85484 | -62.85495 | 21477 ft | 384 kts | 297° |
| 2026-05-03 21:41 | -31.84102 | -62.88153 | 21067 ft | 387 kts | 297° |
| 2026-05-03 21:41 | -31.82695 | -62.90853 | 20645 ft | 387 kts | 297° |
| 2026-05-03 21:41 | -31.81283 | -62.93546 | 20235 ft | 387 kts | 299° |
| 2026-05-03 21:41 | -31.79487 | -62.95942 | 19789 ft | 396 kts | 317° |
| 2026-05-03 21:42 | -31.77074 | -62.97543 | 19382 ft | 405 kts | 336° |
| 2026-05-03 21:42 | -31.74301 | -62.98250 | 19049 ft | 410 kts | 349° |
| 2026-05-03 21:42 | -31.71451 | -62.98578 | 18780 ft | 413 kts | 351° |
| 2026-05-03 21:42 | -31.68577 | -62.98877 | 18573 ft | 415 kts | 347° |
| 2026-05-03 21:43 | -31.65859 | -62.99889 | 18297 ft | 406 kts | 328° |
| 2026-05-03 21:43 | -31.63575 | -63.01758 | 18069 ft | 399 kts | 316° |
| 2026-05-03 21:43 | -31.61518 | -63.03938 | 17822 ft | 399 kts | 313° |
| 2026-05-03 21:43 | -31.59508 | -63.06188 | 17572 ft | 399 kts | 313° |
| 2026-05-03 21:44 | -31.57512 | -63.08460 | 17321 ft | 400 kts | 312° |
| 2026-05-03 21:44 | -31.55615 | -63.10832 | 17053 ft | 397 kts | 303° |
| 2026-05-03 21:44 | -31.54225 | -63.13601 | 16826 ft | 394 kts | 294° |
| 2026-05-03 21:44 | -31.53038 | -63.16459 | 16425 ft | 386 kts | 293° |
| 2026-05-03 21:45 | -31.51906 | -63.19318 | 15708 ft | 387 kts | 292° |
| 2026-05-03 21:45 | -31.50790 | -63.22197 | 14983 ft | 387 kts | 292° |
| 2026-05-03 21:45 | -31.49699 | -63.25055 | 14583 ft | 387 kts | 292° |
| 2026-05-03 21:45 | -31.48604 | -63.27955 | 14157 ft | 400 kts | 292° |
| 2026-05-03 21:46 | -31.47318 | -63.30867 | 13687 ft | 406 kts | 304° |
| 2026-05-03 21:46 | -31.45371 | -63.33269 | 13281 ft | 408 kts | 318° |
| 2026-05-03 21:46 | -31.43144 | -63.35326 | 12921 ft | 404 kts | 321° |
| 2026-05-03 21:46 | -31.40921 | -63.37258 | 12624 ft | 391 kts | 323° |
| 2026-05-03 21:47 | -31.38547 | -63.38695 | 12378 ft | 380 kts | 341° |
| 2026-05-03 21:47 | -31.35993 | -63.39291 | 12181 ft | 368 kts | 350° |
| 2026-05-03 21:47 | -31.33480 | -63.39640 | 12033 ft | 362 kts | 352° |
| 2026-05-03 21:47 | -31.30973 | -63.39947 | 11880 ft | 362 kts | 352° |
| 2026-05-03 21:48 | -31.28501 | -63.40337 | 11609 ft | 356 kts | 343° |
| 2026-05-03 21:48 | -31.26291 | -63.41530 | 11342 ft | 347 kts | 322° |
| 2026-05-03 21:48 | -31.24673 | -63.43541 | 11100 ft | 338 kts | 301° |
| 2026-05-03 21:48 | -31.23855 | -63.46034 | 10858 ft | 333 kts | 280° |
| 2026-05-03 21:49 | -31.23920 | -63.48731 | 10601 ft | 334 kts | 258° |
| 2026-05-03 21:49 | -31.24876 | -63.51204 | 10352 ft | 339 kts | 237° |
| 2026-05-03 21:49 | -31.26597 | -63.53097 | 10112 ft | 346 kts | 214° |
| 2026-05-03 21:49 | -31.28789 | -63.54307 | 10062 ft | 353 kts | 204° |
| 2026-05-03 21:50 | -31.31179 | -63.55125 | 9994 ft | 362 kts | 188° |
| 2026-05-03 21:50 | -31.33704 | -63.55068 | 9931 ft | 363 kts | 175° |
| 2026-05-03 21:50 | -31.36205 | -63.54694 | 9661 ft | 362 kts | 173° |
| 2026-05-03 21:50 | -31.38699 | -63.54270 | 9406 ft | 361 kts | 173° |
| 2026-05-03 21:51 | -31.41188 | -63.53836 | 9157 ft | 362 kts | 172° |
| 2026-05-03 21:51 | -31.43686 | -63.53400 | 8906 ft | 363 kts | 172° |
| 2026-05-03 21:51 | -31.46185 | -63.52966 | 8653 ft | 363 kts | 172° |
| 2026-05-03 21:51 | -31.48550 | -63.52558 | 8417 ft | 363 kts | 172° |
| 2026-05-03 21:52 | -31.51018 | -63.52134 | 8171 ft | 363 kts | 172° |
| 2026-05-03 21:52 | -31.53504 | -63.51708 | 8031 ft | 359 kts | 172° |
| 2026-05-03 21:52 | -31.55991 | -63.51446 | 7982 ft | 357 kts | 186° |
| 2026-05-03 21:52 | -31.58329 | -63.52266 | 7791 ft | 351 kts | 214° |
| 2026-05-03 21:53 | -31.60050 | -63.54176 | 7546 ft | 337 kts | 242° |
| 2026-05-03 21:53 | -31.60928 | -63.56650 | 7322 ft | 324 kts | 261° |
| 2026-05-03 21:53 | -31.61234 | -63.59243 | 7092 ft | 318 kts | 273° |
| 2026-05-03 21:53 | -31.61051 | -63.61820 | 7021 ft | 316 kts | 288° |
| 2026-05-03 21:54 | -31.60293 | -63.64193 | 7009 ft | 309 kts | 298° |
| 2026-05-03 21:54 | -31.59373 | -63.66466 | 6988 ft | 308 kts | 300° |
| 2026-05-03 21:54 | -31.58749 | -63.67957 | 6987 ft | 308 kts | 300° |
| 2026-05-03 21:54 | -31.57506 | -63.70921 | 6982 ft | 294 kts | 300° |
| 2026-05-03 21:55 | -31.56626 | -63.73033 | 6977 ft | 281 kts | 300° |
| 2026-05-03 21:55 | -31.56066 | -63.74382 | 6982 ft | 275 kts | 300° |
| 2026-05-03 21:55 | -31.55238 | -63.76376 | 6984 ft | 271 kts | 300° |
| 2026-05-03 21:55 | -31.54410 | -63.78369 | 7005 ft | 274 kts | 300° |
| 2026-05-03 21:56 | -31.53577 | -63.80391 | 7013 ft | 275 kts | 300° |
| 2026-05-03 21:56 | -31.52745 | -63.82414 | 6995 ft | 278 kts | 300° |
| 2026-05-03 21:56 | -31.51905 | -63.84452 | 7000 ft | 277 kts | 300° |
| 2026-05-03 21:56 | -31.51071 | -63.86481 | 6988 ft | 273 kts | 300° |
| 2026-05-03 21:57 | -31.50280 | -63.88418 | 6972 ft | 253 kts | 300° |
| 2026-05-03 21:57 | -31.49552 | -63.90202 | 6973 ft | 233 kts | 300° |
| 2026-05-03 21:57 | -31.48895 | -63.91849 | 6974 ft | 217 kts | 296° |
| 2026-05-03 21:57 | -31.48470 | -63.93530 | 6947 ft | 214 kts | 290° |
| 2026-05-03 21:58 | -31.48119 | -63.95226 | 6766 ft | 213 kts | 289° |
| 2026-05-03 21:58 | -31.47772 | -63.96909 | 6363 ft | 214 kts | 290° |
| 2026-05-03 21:58 | -31.47419 | -63.98581 | 5987 ft | 214 kts | 290° |
| 2026-05-03 21:58 | -31.47058 | -64.00277 | 5642 ft | 212 kts | 290° |
| 2026-05-03 21:59 | -31.46713 | -64.01896 | 5566 ft | 194 kts | 291° |
| 2026-05-03 21:59 | -31.46390 | -64.03387 | 5308 ft | 186 kts | 291° |
| 2026-05-03 21:59 | -31.46078 | -64.04821 | 5106 ft | 178 kts | 291° |
| 2026-05-03 21:59 | -31.45760 | -64.06241 | 4973 ft | 184 kts | 291° |
| 2026-05-03 22:00 | -31.45434 | -64.07704 | 4890 ft | 186 kts | 291° |
| 2026-05-03 22:00 | -31.45112 | -64.09151 | 4787 ft | 181 kts | 292° |
| 2026-05-03 22:00 | -31.44800 | -64.10566 | 4607 ft | 180 kts | 291° |
| 2026-05-03 22:00 | -31.44486 | -64.11978 | 4438 ft | 178 kts | 291° |
| 2026-05-03 22:01 | -31.44134 | -64.13554 | 4238 ft | 178 kts | 291° |
| 2026-05-03 22:01 | -31.43815 | -64.14982 | 4056 ft | 179 kts | 291° |
| 2026-05-03 22:01 | -31.43419 | -64.16343 | 3840 ft | 173 kts | 311° |
| 2026-05-03 22:01 | -31.42510 | -64.17122 | 3685 ft | 159 kts | 335° |
| 2026-05-03 22:02 | -31.41570 | -64.17761 | 3451 ft | 152 kts | 333° |
| 2026-05-03 22:02 | -31.40683 | -64.18383 | 3265 ft | 146 kts | 334° |
| 2026-05-03 22:02 | -31.39817 | -64.18986 | 3112 ft | 149 kts | 334° |
| 2026-05-03 22:02 | -31.38929 | -64.19606 | 2884 ft | 145 kts | 334° |
| 2026-05-03 22:03 | -31.38090 | -64.20191 | 2673 ft | 141 kts | 334° |
| 2026-05-03 22:03 | -31.37213 | -64.20765 | 2553 ft | 145 kts | 342° |
| 2026-05-03 22:03 | -31.36271 | -64.20970 | 2447 ft | 134 kts | 4° |
| 2026-05-03 22:03 | -31.35309 | -64.20875 | 2296 ft | 143 kts | 7° |
| 2026-05-03 22:04 | -31.34297 | -64.20804 | 2034 ft | 148 kts | 4° |
| 2026-05-03 22:04 | -31.33273 | -64.20805 | 1798 ft | 146 kts | 1° |
| 2026-05-03 22:04 | -31.32279 | -64.20820 | 1628 ft | 141 kts | 1° |
| 2026-05-03 22:04 | -31.31398 | -64.20821 | 1617 ft | 104 kts | 0° |
| 2026-05-03 22:05 | -31.30998 | -64.20817 | 1620 ft | 13 kts | 0° |
| 2026-05-03 22:05 | -31.30955 | -64.20839 | 1615 ft | 4 kts | 238° |
| 2026-05-03 22:05 | -31.31042 | -64.20838 | 1611 ft | 22 kts | 176° |
| 2026-05-03 22:05 | -31.31248 | -64.20835 | 1616 ft | 33 kts | 178° |
| 2026-05-03 22:06 | -31.31397 | -64.20835 | 1616 ft | 16 kts | 187° |
| 2026-05-03 22:06 | -31.31465 | -64.20899 | 1620 ft | 10 kts | 252° |
| 2026-05-03 22:06 | -31.31467 | -64.20924 | 1613 ft | 1 kts | 269° |
| 2026-05-03 22:06 | -31.31467 | -64.20939 | 1612 ft | 2 kts | 269° |
| 2026-05-03 22:07 | -31.31467 | -64.20961 | 1615 ft | 3 kts | 269° |
| 2026-05-03 22:07 | -31.31467 | -64.20982 | 1612 ft | 3 kts | 269° |
| 2026-05-03 22:07 | -31.31469 | -64.21019 | 1619 ft | 6 kts | 266° |
| 2026-05-03 22:07 | -31.31485 | -64.21075 | 1612 ft | 7 kts | 208° |
| 2026-05-03 22:08 | -31.31512 | -64.21117 | 1612 ft | 7 kts | 267° |
| 2026-05-03 22:08 | -31.31513 | -64.21158 | 1612 ft | 2 kts | 268° |
| 2026-05-03 22:08 | -31.31513 | -64.21159 | 1615 ft | 0 kts | 268° |